FACT/CPT METAR and TAF weather

Enter ICAO airport designator
Station Type Date Time Source
FACT METAR 2019/02/23 17:00 UTC NOAA

FACT 231700Z 18014KT 9999 FEW025 22/19 Q1013 NOSIG


Station Type Date Time Source
FACT Decoded METAR 2019/02/23 17:00 UTC NOAA

Cape Town, Cape Town International Airport, South Africa (FACT) 33-59S 018-36E 0M
Feb 23, 2019 - 12:00 PM EST / 2019.02.23 1700 UTC
Wind: from the S (180 degrees) at 16 MPH (14 KT):0
Visibility: greater than 7 mile(s):0
Sky conditions: mostly clear
Temperature: 71 F (22 C)
Dew Point: 66 F (19 C)
Relative Humidity: 83%
Pressure (altimeter): 29.91 in. Hg (1013 hPa)
ob: FACT 231700Z 18014KT 9999 FEW025 22/19 Q1013 NOSIG
cycle: 17

Station Type Date Time Source
FACT TAF 2019/02/23 18:10 UTC NOAA

TAF FACT 231600Z 2318/2424 18010KT 9999 SCT020 TX27/2412Z TN16/2404Z PROB30
TEMPO 2322/2404 BKN008
FM240600 19008KT CAVOK


Example: see airport list